Terminal Aerodrome Forecast
Issued by NWS

Home | Current Version | Previous Version | Text Only | Print | Product List | Glossary On
Versions: 1 2 3 4 5 6 7 8 9 10 11 12
109
FTUS44 KTSA 071737
TAFRVS
TAF
KRVS 071737Z 0718/0818 29005KT P6SM BKN150
     FM071900 35012G19KT P6SM SCT120
     FM080200 32012G18KT P6SM FEW250
     FM081500 33015G23KT P6SM SCT050=

USA.gov is the U.S. government's official web portal to all federal, state and local government web resources and services.